createdAt,value
2019-05-10T00:00:47.909Z,11.76
2019-05-10T00:01:47.928Z,11.76
2019-05-10T00:02:47.887Z,11.74
2019-05-10T00:03:47.883Z,11.73
2019-05-10T00:04:47.868Z,11.69
2019-05-10T00:05:47.853Z,11.70
2019-05-10T00:06:47.865Z,11.79
2019-05-10T00:07:47.831Z,11.73
2019-05-10T00:08:47.836Z,11.76
2019-05-10T00:09:47.810Z,11.70
2019-05-10T00:10:47.798Z,11.70
2019-05-10T00:11:49.397Z,11.70
2019-05-10T00:12:47.775Z,11.73
2019-05-10T00:13:47.764Z,11.66
2019-05-10T00:14:47.754Z,11.62
2019-05-10T00:15:47.742Z,11.66
2019-05-10T00:16:47.755Z,11.67
2019-05-10T00:17:47.719Z,11.61
2019-05-10T00:18:47.713Z,11.66
2019-05-10T00:19:47.700Z,11.61
2019-05-10T00:20:47.693Z,11.66
2019-05-10T00:21:47.674Z,11.62
2019-05-10T00:22:47.686Z,11.61
2019-05-10T00:23:47.653Z,11.67
2019-05-10T00:25:02.081Z,11.66
2019-05-10T00:25:47.633Z,11.61
2019-05-10T00:26:47.620Z,11.67
2019-05-10T00:27:47.639Z,11.66
2019-05-10T00:28:47.597Z,11.67
2019-05-10T00:29:47.587Z,11.58
2019-05-10T00:30:47.576Z,11.61
2019-05-10T00:31:47.563Z,11.66
2019-05-10T00:32:47.583Z,11.66
2019-05-10T00:33:47.540Z,11.64
2019-05-10T00:34:47.531Z,11.61
2019-05-10T00:35:47.518Z,11.66
2019-05-10T00:36:47.507Z,11.61
2019-05-10T00:37:47.525Z,11.64
2019-05-10T00:38:47.485Z,11.61
2019-05-10T00:39:47.478Z,11.61
2019-05-10T00:40:47.464Z,11.62
2019-05-10T00:41:47.470Z,11.64
2019-05-10T00:42:47.464Z,11.66
2019-05-10T00:43:47.429Z,11.61
2019-05-10T00:44:47.418Z,11.61
2019-05-10T00:45:47.408Z,11.59
2019-05-10T00:46:47.411Z,11.66
2019-05-10T00:47:47.406Z,11.59
2019-05-10T00:48:47.376Z,11.56
2019-05-10T00:49:47.370Z,11.58
2019-05-10T00:50:47.355Z,11.59
2019-05-10T00:51:47.343Z,11.54
2019-05-10T00:52:47.357Z,11.55
2019-05-10T00:53:47.317Z,11.56
2019-05-10T00:54:47.307Z,11.55
2019-05-10T00:55:47.300Z,11.58
2019-05-10T00:56:47.287Z,11.55
2019-05-10T00:57:47.298Z,11.56
2019-05-10T00:58:47.264Z,11.58
2019-05-10T00:59:47.255Z,11.48
2019-05-10T01:00:47.239Z,11.54
2019-05-10T01:01:47.229Z,11.51
2019-05-10T01:02:47.241Z,11.48
2019-05-10T01:03:47.227Z,11.52
2019-05-10T01:04:47.256Z,11.49
2019-05-10T01:05:47.184Z,11.51
2019-05-10T01:06:47.170Z,11.55
2019-05-10T01:07:47.186Z,11.55
2019-05-10T01:08:47.150Z,11.51
2019-05-10T01:09:47.139Z,11.48
2019-05-10T01:10:47.127Z,11.52
2019-05-10T01:11:47.118Z,11.51
2019-05-10T01:12:47.129Z,11.52
2019-05-10T01:13:47.103Z,11.48
2019-05-10T01:14:47.082Z,11.45
2019-05-10T01:15:47.075Z,11.46
2019-05-10T01:16:47.059Z,11.49
2019-05-10T01:17:47.072Z,11.46
2019-05-10T01:18:47.038Z,11.48
2019-05-10T01:19:47.028Z,11.55
2019-05-10T01:20:47.018Z,11.48
2019-05-10T01:21:47.004Z,11.51
2019-05-10T01:22:47.018Z,11.49
2019-05-10T01:23:46.982Z,11.49
2019-05-10T01:24:46.971Z,11.52
2019-05-10T01:25:46.963Z,11.52
2019-05-10T01:26:46.954Z,11.58
2019-05-10T01:27:46.964Z,11.54
2019-05-10T01:28:46.926Z,11.48
2019-05-10T01:29:46.913Z,11.45
2019-05-10T01:30:46.905Z,11.52
2019-05-10T01:31:46.892Z,11.45
2019-05-10T01:32:46.910Z,11.54
2019-05-10T01:33:46.873Z,11.51
2019-05-10T01:34:46.858Z,11.48
2019-05-10T01:35:46.850Z,11.46
2019-05-10T01:36:46.836Z,11.46
2019-05-10T01:37:46.849Z,11.34
2019-05-10T01:38:46.814Z,11.40
2019-05-10T01:39:46.808Z,11.40
2019-05-10T01:40:46.796Z,11.40
2019-05-10T01:41:46.784Z,11.38
2019-05-10T01:42:46.793Z,11.38
2019-05-10T01:43:46.759Z,11.45
2019-05-10T01:44:46.752Z,11.43
2019-05-10T01:45:46.735Z,11.41
2019-05-10T01:46:46.727Z,11.43
2019-05-10T01:47:46.740Z,11.43
2019-05-10T01:48:46.705Z,11.38
2019-05-10T01:49:46.693Z,11.38
2019-05-10T01:50:46.683Z,11.38
2019-05-10T01:51:46.669Z,11.43
2019-05-10T01:52:46.681Z,11.38
2019-05-10T01:53:46.649Z,11.36
2019-05-10T01:54:46.636Z,11.31
2019-05-10T01:55:52.063Z,11.23
2019-05-10T01:56:47.614Z,11.27
2019-05-10T01:57:46.630Z,11.22
2019-05-10T01:58:46.593Z,11.25
2019-05-10T01:59:46.585Z,11.27
2019-05-10T02:00:46.570Z,11.23
2019-05-10T02:01:46.556Z,11.20
2019-05-10T02:02:46.568Z,11.23
2019-05-10T02:03:46.537Z,11.15
2019-05-10T02:04:46.529Z,11.22
2019-05-10T02:05:46.515Z,11.20
2019-05-10T02:06:46.502Z,11.16
2019-05-10T02:07:46.529Z,11.33
2019-05-10T02:08:46.478Z,11.18
2019-05-10T02:09:46.468Z,11.25
2019-05-10T02:10:46.459Z,11.15
2019-05-10T02:11:46.445Z,11.13
2019-05-10T02:12:46.435Z,11.22
2019-05-10T02:13:46.449Z,11.22
2019-05-10T02:14:46.414Z,11.16
2019-05-10T02:15:46.407Z,11.16
2019-05-10T02:16:46.391Z,11.27
2019-05-10T02:17:46.381Z,11.16
2019-05-10T02:18:46.393Z,11.19
2019-05-10T02:19:46.356Z,11.16
2019-05-10T02:20:46.350Z,11.16
2019-05-10T02:21:46.341Z,11.13
2019-05-10T02:22:46.327Z,11.11
2019-05-10T02:23:46.337Z,11.13
2019-05-10T02:24:46.311Z,11.18
2019-05-10T02:25:46.288Z,11.13
2019-05-10T02:26:46.284Z,11.13
2019-05-10T02:27:46.279Z,11.18
2019-05-10T02:28:46.280Z,11.13
2019-05-10T02:29:46.247Z,11.11
2019-05-10T02:30:46.235Z,11.16
2019-05-10T02:31:46.226Z,11.18
2019-05-10T02:32:46.212Z,11.16
2019-05-10T02:33:46.222Z,11.09
2019-05-10T02:34:46.192Z,11.09
2019-05-10T02:35:46.186Z,11.13
2019-05-10T02:36:46.167Z,11.11
2019-05-10T02:37:46.155Z,11.08
2019-05-10T02:38:46.168Z,11.04
2019-05-10T02:39:46.137Z,11.01
2019-05-10T02:40:46.127Z,11.05
2019-05-10T02:41:46.112Z,11.03
2019-05-10T02:42:46.100Z,11.00
2019-05-10T02:43:46.117Z,11.05
2019-05-10T02:44:46.083Z,11.04
2019-05-10T02:45:46.070Z,11.04
2019-05-10T02:46:46.057Z,11.08
2019-05-10T02:47:46.045Z,11.05
2019-05-10T02:48:46.057Z,11.05
2019-05-10T02:49:46.025Z,11.03
2019-05-10T02:50:46.014Z,11.08
2019-05-10T02:51:46.002Z,11.08
2019-05-10T02:52:45.991Z,11.01
2019-05-10T02:53:46.002Z,11.03
2019-05-10T02:54:45.970Z,11.08
2019-05-10T02:55:45.955Z,11.01
2019-05-10T02:56:45.947Z,11.04
2019-05-10T02:57:45.934Z,11.11
2019-05-10T02:58:45.944Z,11.05
2019-05-10T02:59:45.913Z,11.01
2019-05-10T03:00:45.911Z,11.00
2019-05-10T03:01:45.891Z,11.04
2019-05-10T03:02:45.881Z,11.00
2019-05-10T03:03:45.890Z,10.97
2019-05-10T03:04:45.924Z,10.90
2019-05-10T03:05:48.607Z,10.87
2019-05-10T03:06:45.833Z,10.93
2019-05-10T03:07:45.822Z,10.97
2019-05-10T03:08:45.836Z,10.98
2019-05-10T03:09:45.801Z,11.00
2019-05-10T03:10:45.789Z,10.97
2019-05-10T03:11:45.791Z,11.04
2019-05-10T03:12:45.767Z,11.09
2019-05-10T03:13:45.778Z,11.11
2019-05-10T03:14:45.749Z,10.98
2019-05-10T03:15:45.735Z,11.04
2019-05-10T03:16:45.721Z,10.98
2019-05-10T03:17:45.714Z,11.00
2019-05-10T03:18:45.724Z,10.94
2019-05-10T03:19:45.689Z,10.98
2019-05-10T03:20:45.676Z,11.01
2019-05-10T03:21:45.674Z,10.94
2019-05-10T03:22:45.657Z,11.03
2019-05-10T03:23:45.666Z,11.05
2019-05-10T03:24:45.631Z,11.01
2019-05-10T03:25:45.623Z,11.00
2019-05-10T03:26:51.080Z,11.00
2019-05-10T03:27:45.601Z,10.87
2019-05-10T03:28:45.614Z,11.00
2019-05-10T03:29:45.579Z,11.00
2019-05-10T03:30:45.576Z,10.91
2019-05-10T03:31:45.556Z,11.01
2019-05-10T03:32:45.550Z,11.00
2019-05-10T03:33:45.567Z,10.95
2019-05-10T03:34:45.548Z,11.00
2019-05-10T03:35:45.518Z,11.00
2019-05-10T03:36:45.505Z,10.95
2019-05-10T03:37:45.499Z,10.93
2019-05-10T03:38:45.475Z,11.00
2019-05-10T03:39:45.489Z,10.97
2019-05-10T03:40:45.455Z,10.93
2019-05-10T03:41:45.443Z,10.94
2019-05-10T03:42:45.476Z,11.01
2019-05-10T03:43:45.421Z,10.91
2019-05-10T03:44:45.441Z,10.98
2019-05-10T03:45:45.399Z,10.98
2019-05-10T03:46:45.386Z,11.00
2019-05-10T03:47:45.377Z,10.94
2019-05-10T03:48:45.365Z,10.97
2019-05-10T03:49:45.378Z,10.98
2019-05-10T03:50:45.342Z,10.94
2019-05-10T03:51:45.339Z,10.87
2019-05-10T03:52:45.319Z,10.91
2019-05-10T03:53:45.309Z,10.95
2019-05-10T03:54:45.324Z,10.95
2019-05-10T03:55:45.286Z,10.95
2019-05-10T03:56:45.281Z,10.97
2019-05-10T03:57:45.268Z,11.05
2019-05-10T03:58:45.253Z,10.97
2019-05-10T03:59:45.265Z,10.95
2019-05-10T04:00:45.239Z,10.94
2019-05-10T04:01:45.222Z,10.95
2019-05-10T04:02:45.217Z,10.91
2019-05-10T04:03:45.199Z,10.91
2019-05-10T04:04:45.225Z,10.94
2019-05-10T04:05:45.178Z,10.94
2019-05-10T04:06:45.165Z,10.90
2019-05-10T04:07:45.153Z,10.94
2019-05-10T04:08:45.142Z,10.93
2019-05-10T04:09:45.128Z,10.97
2019-05-10T04:10:45.143Z,11.00
2019-05-10T04:11:45.107Z,11.01
2019-05-10T04:12:45.099Z,10.93
2019-05-10T04:13:45.099Z,11.00
2019-05-10T04:14:45.075Z,10.94
2019-05-10T04:15:45.099Z,11.01
2019-05-10T04:16:45.067Z,10.95
2019-05-10T04:17:49.520Z,10.91
2019-05-10T04:18:45.041Z,10.94
2019-05-10T04:19:45.022Z,10.94
2019-05-10T04:20:45.089Z,10.97
2019-05-10T04:21:45.122Z,11.00
2019-05-10T04:22:44.995Z,10.97
2019-05-10T04:23:44.974Z,10.98
2019-05-10T04:24:44.964Z,10.93
2019-05-10T04:25:44.993Z,10.91
2019-05-10T04:26:44.942Z,11.01
2019-05-10T04:27:44.931Z,11.00
2019-05-10T04:28:44.918Z,10.97
2019-05-10T04:29:44.908Z,10.98
2019-05-10T04:30:44.933Z,10.86
2019-05-10T04:31:44.886Z,11.00
2019-05-10T04:32:44.878Z,11.00
2019-05-10T04:33:44.881Z,11.04
2019-05-10T04:34:44.856Z,10.97
2019-05-10T04:35:44.863Z,10.93
2019-05-10T04:36:44.830Z,10.98
2019-05-10T04:37:44.823Z,10.97
2019-05-10T04:38:44.814Z,10.98
2019-05-10T04:39:44.805Z,11.04
2019-05-10T04:40:44.812Z,11.04
2019-05-10T04:41:44.774Z,11.01
2019-05-10T04:42:44.763Z,11.05
2019-05-10T04:43:44.750Z,11.09
2019-05-10T04:44:44.745Z,11.05
2019-05-10T04:45:44.774Z,11.08
2019-05-10T04:46:44.734Z,11.01
2019-05-10T04:47:44.710Z,11.03
2019-05-10T04:48:44.695Z,11.04
2019-05-10T04:49:44.685Z,11.09
2019-05-10T04:50:48.788Z,11.11
2019-05-10T04:51:44.689Z,11.12
2019-05-10T04:52:44.652Z,11.19
2019-05-10T04:53:44.642Z,11.20
2019-05-10T04:54:44.631Z,11.12
2019-05-10T04:55:44.619Z,11.15
2019-05-10T04:56:44.630Z,11.19
2019-05-10T04:57:50.424Z,11.19
2019-05-10T04:58:44.588Z,11.20
2019-05-10T04:59:44.571Z,11.16
2019-05-10T05:00:44.562Z,11.20
2019-05-10T05:01:44.588Z,11.18
2019-05-10T05:02:44.545Z,11.20
2019-05-10T05:03:44.528Z,11.19
2019-05-10T05:04:44.627Z,11.27
2019-05-10T05:05:44.521Z,11.19
2019-05-10T05:06:44.523Z,11.23
2019-05-10T05:07:44.487Z,11.25
2019-05-10T05:08:44.473Z,11.25
2019-05-10T05:09:44.461Z,11.23
2019-05-10T05:10:44.451Z,11.25
2019-05-10T05:11:44.464Z,11.22
2019-05-10T05:12:44.427Z,11.30
2019-05-10T05:13:44.417Z,11.22
2019-05-10T05:14:44.405Z,11.33
2019-05-10T05:15:44.863Z,11.31
2019-05-10T05:16:44.408Z,11.31
2019-05-10T05:17:44.372Z,11.37
2019-05-10T05:18:44.362Z,11.40
2019-05-10T05:19:44.355Z,11.37
2019-05-10T05:20:44.342Z,11.37
2019-05-10T05:21:44.354Z,11.37
2019-05-10T05:22:44.320Z,11.33
2019-05-10T05:23:44.307Z,11.34
2019-05-10T05:24:44.298Z,11.40
2019-05-10T05:25:44.307Z,11.45
2019-05-10T05:26:44.305Z,11.41
2019-05-10T05:27:44.266Z,11.40
2019-05-10T05:28:44.249Z,11.45
2019-05-10T05:29:44.238Z,11.38
2019-05-10T05:30:44.229Z,11.36
2019-05-10T05:31:44.240Z,11.36
2019-05-10T05:32:45.765Z,11.38
2019-05-10T05:33:44.194Z,11.36
2019-05-10T05:34:44.258Z,11.41
2019-05-10T05:35:44.175Z,11.41
2019-05-10T05:36:44.278Z,11.41
2019-05-10T05:37:44.168Z,11.49
2019-05-10T05:38:47.251Z,11.45
2019-05-10T05:39:44.133Z,11.41
2019-05-10T05:40:44.116Z,11.41
2019-05-10T05:41:49.079Z,11.46
2019-05-10T05:42:44.100Z,11.52
2019-05-10T05:43:46.474Z,11.37
2019-05-10T05:44:44.072Z,11.51
2019-05-10T05:45:44.059Z,11.45
2019-05-10T05:46:44.074Z,11.52
2019-05-10T05:47:44.800Z,11.48
2019-05-10T05:48:44.032Z,11.48
2019-05-10T05:49:44.070Z,11.58
2019-05-10T05:50:44.012Z,11.48
2019-05-10T05:51:44.017Z,11.48
2019-05-10T05:52:43.981Z,11.54
2019-05-10T05:53:44.759Z,11.52
2019-05-10T05:54:43.962Z,11.51
2019-05-10T05:55:43.955Z,11.48
2019-05-10T05:56:52.699Z,11.45
2019-05-10T05:57:43.931Z,11.43
2019-05-10T05:58:46.729Z,11.49
2019-05-10T05:59:43.910Z,11.45
2019-05-10T06:00:45.069Z,11.51
2019-05-10T06:01:43.913Z,11.48
2019-05-10T06:02:44.918Z,11.49
2019-05-10T06:03:43.859Z,11.52
2019-05-10T06:04:46.348Z,11.51
2019-05-10T06:05:43.837Z,11.59
2019-05-10T06:06:43.851Z,11.55
2019-05-10T06:07:43.818Z,11.55
2019-05-10T06:08:43.815Z,11.59
2019-05-10T06:09:43.796Z,11.56
2019-05-10T06:10:44.224Z,11.59
2019-05-10T06:11:43.799Z,11.59
2019-05-10T06:12:44.611Z,11.58
2019-05-10T06:13:44.754Z,11.56
2019-05-10T06:14:49.626Z,11.54
2019-05-10T06:15:43.750Z,11.58
2019-05-10T06:16:44.987Z,11.52
2019-05-10T06:17:43.727Z,11.52
2019-05-10T06:18:47.370Z,11.54
2019-05-10T06:19:43.686Z,11.58
2019-05-10T06:20:44.488Z,11.54
2019-05-10T06:21:43.705Z,11.59
2019-05-10T06:22:56.148Z,11.54
2019-05-10T06:23:43.639Z,11.55
2019-05-10T06:24:46.614Z,11.59
2019-05-10T06:25:44.684Z,11.58
2019-05-10T06:26:43.608Z,11.58
2019-05-10T06:27:43.623Z,11.61
2019-05-10T06:28:58.418Z,11.71
2019-05-10T06:29:44.577Z,11.64
2019-05-10T06:30:43.635Z,11.69
2019-05-10T06:31:43.550Z,11.64
2019-05-10T06:32:43.558Z,11.61
2019-05-10T06:33:44.934Z,11.73
2019-05-10T06:34:43.514Z,11.67
2019-05-10T06:35:43.507Z,11.66
2019-05-10T06:36:43.492Z,11.66
2019-05-10T06:37:43.547Z,11.74
2019-05-10T06:38:43.473Z,11.71
2019-05-10T06:39:43.474Z,11.69
2019-05-10T06:40:47.304Z,11.74
2019-05-10T06:41:43.439Z,11.80
2019-05-10T06:42:43.447Z,11.80
2019-05-10T06:43:45.740Z,11.71
2019-05-10T06:44:44.405Z,11.79
2019-05-10T06:45:46.829Z,11.79
2019-05-10T06:46:43.387Z,11.77
2019-05-10T06:47:47.826Z,11.87
2019-05-10T06:48:43.361Z,11.76
2019-05-10T06:49:50.699Z,11.79
2019-05-10T06:50:44.362Z,11.76
2019-05-10T06:51:49.249Z,11.74
2019-05-10T06:52:43.343Z,11.79
2019-05-10T06:53:52.282Z,11.77
2019-05-10T06:54:44.292Z,11.76
2019-05-10T06:55:43.284Z,11.82
2019-05-10T06:56:43.269Z,11.69
2019-05-10T06:57:43.283Z,11.84
2019-05-10T06:58:43.250Z,11.73
2019-05-10T06:59:43.238Z,11.73
2019-05-10T07:00:44.898Z,11.85
2019-05-10T07:01:45.979Z,11.77
2019-05-10T07:02:43.228Z,11.74
2019-05-10T07:03:43.190Z,11.79
2019-05-10T07:04:43.179Z,11.87
2019-05-10T07:05:43.173Z,11.71
2019-05-10T07:06:43.163Z,11.79
2019-05-10T07:07:45.244Z,11.89
2019-05-10T07:08:45.630Z,11.79
2019-05-10T07:10:04.270Z,11.82
2019-05-10T07:10:44.115Z,11.79
2019-05-10T07:11:43.761Z,11.89
2019-05-10T07:12:43.168Z,12.00
2019-05-10T07:13:47.255Z,11.96
2019-05-10T07:14:45.861Z,11.97
2019-05-10T07:15:44.883Z,12.07
2019-05-10T07:16:43.046Z,11.91
2019-05-10T07:17:47.019Z,12.00
2019-05-10T07:18:43.028Z,11.97
2019-05-10T07:19:53.192Z,12.08
2019-05-10T07:20:43.451Z,12.04
2019-05-10T07:21:44.312Z,12.08
2019-05-10T07:22:43.007Z,12.10
2019-05-10T07:23:44.840Z,12.11
2019-05-10T07:24:42.958Z,12.11
2019-05-10T07:25:43.900Z,12.15
2019-05-10T07:26:42.934Z,12.18
2019-05-10T07:27:42.950Z,12.22
2019-05-10T07:28:42.912Z,12.10
2019-05-10T07:29:46.122Z,12.18
2019-05-10T07:30:42.892Z,12.13
2019-05-10T07:31:42.886Z,12.25
2019-05-10T07:32:42.893Z,12.26
2019-05-10T07:33:42.859Z,12.36
2019-05-10T07:34:48.884Z,12.41
2019-05-10T07:35:42.845Z,12.46
2019-05-10T07:36:42.823Z,12.59
2019-05-10T07:37:47.617Z,12.62
2019-05-10T07:38:42.825Z,12.59
2019-05-10T07:39:42.793Z,12.53
2019-05-10T07:40:42.785Z,12.58
2019-05-10T07:41:42.770Z,12.58
2019-05-10T07:42:45.626Z,12.55
2019-05-10T07:43:42.744Z,12.58
2019-05-10T07:44:46.637Z,12.51
2019-05-10T07:45:42.728Z,12.61
2019-05-10T07:46:47.016Z,12.58
2019-05-10T07:47:43.726Z,12.58
2019-05-10T07:48:47.286Z,12.46
2019-05-10T07:49:43.679Z,12.51
2019-05-10T07:50:49.156Z,12.54
2019-05-10T07:51:42.666Z,12.48
2019-05-10T07:52:43.803Z,12.50
2019-05-10T07:53:42.635Z,12.50
2019-05-10T07:54:45.223Z,12.33
2019-05-10T07:55:42.613Z,12.43
2019-05-10T07:56:45.523Z,12.43
2019-05-10T07:57:42.617Z,12.43
2019-05-10T07:58:43.568Z,12.48
2019-05-10T07:59:50.933Z,12.47
2019-05-10T08:00:44.389Z,12.40
2019-05-10T08:01:42.544Z,12.41
2019-05-10T08:02:44.437Z,12.44
2019-05-10T08:03:48.162Z,12.41
2019-05-10T08:04:42.513Z,12.38
2019-05-10T08:05:46.332Z,12.41
2019-05-10T08:06:47.489Z,12.29
2019-05-10T08:07:43.483Z,12.29
2019-05-10T08:08:42.507Z,12.29
2019-05-10T08:09:45.278Z,12.30
2019-05-10T08:10:42.442Z,12.26
2019-05-10T08:11:42.475Z,12.29
2019-05-10T08:12:45.648Z,12.33
2019-05-10T08:13:42.899Z,12.25
2019-05-10T08:14:44.628Z,12.28
2019-05-10T08:15:42.391Z,12.28
2019-05-10T08:16:42.377Z,12.23
2019-05-10T08:17:45.590Z,12.25
2019-05-10T08:18:42.672Z,12.21
2019-05-10T08:19:42.345Z,12.21
2019-05-10T08:20:53.297Z,12.21
2019-05-10T08:21:42.322Z,12.21
2019-05-10T08:22:46.102Z,12.26
2019-05-10T08:23:43.852Z,12.26
2019-05-10T08:24:44.580Z,12.30
2019-05-10T08:25:46.835Z,12.33
2019-05-10T08:26:43.281Z,12.36
2019-05-10T08:27:50.082Z,12.35
2019-05-10T08:28:44.679Z,12.43
2019-05-10T08:29:42.965Z,12.40
2019-05-10T08:30:51.167Z,12.35
2019-05-10T08:31:49.050Z,12.44
2019-05-10T08:32:43.201Z,12.38
2019-05-10T08:33:44.241Z,12.46
2019-05-10T08:34:51.841Z,12.54
2019-05-10T08:35:46.114Z,12.63
2019-05-10T08:36:45.870Z,12.55
2019-05-10T08:37:43.262Z,12.55
2019-05-10T08:38:47.277Z,12.65
2019-05-10T08:39:48.965Z,12.65
2019-05-10T08:40:43.170Z,12.65
2019-05-10T08:41:42.884Z,12.65
2019-05-10T08:42:48.074Z,12.79
2019-05-10T08:43:43.021Z,12.77
2019-05-10T08:44:42.764Z,12.83
2019-05-10T08:45:44.982Z,12.86
2019-05-10T08:46:44.311Z,12.90
2019-05-10T08:47:42.821Z,12.99
2019-05-10T08:48:46.194Z,12.90
2019-05-10T08:49:54.525Z,13.05
2019-05-10T08:50:50.633Z,13.05
2019-05-10T08:51:47.995Z,12.99
2019-05-10T08:52:42.451Z,13.02
2019-05-10T08:53:42.342Z,13.09
2019-05-10T08:54:42.396Z,12.99
2019-05-10T08:55:43.291Z,13.01
2019-05-10T08:56:46.413Z,12.99
2019-05-10T08:57:44.236Z,13.08
2019-05-10T08:58:42.369Z,13.04
2019-05-10T08:59:42.758Z,13.06
2019-05-10T09:00:54.277Z,13.08
2019-05-10T09:01:46.579Z,13.04
2019-05-10T09:02:42.716Z,13.14
2019-05-10T09:03:42.147Z,13.17
2019-05-10T09:04:48.686Z,13.19
2019-05-10T09:05:43.345Z,13.14
2019-05-10T09:06:42.088Z,13.26
2019-05-10T09:07:42.934Z,13.26
2019-05-10T09:08:43.151Z,13.27
2019-05-10T09:09:46.429Z,13.27
2019-05-10T09:10:42.227Z,13.24
2019-05-10T09:11:44.259Z,13.24
2019-05-10T09:12:50.619Z,13.39
2019-05-10T09:13:45.896Z,13.36
2019-05-10T09:14:42.573Z,13.35
2019-05-10T09:15:51.467Z,13.30
2019-05-10T09:16:45.676Z,13.30
2019-05-10T09:17:43.032Z,13.42
2019-05-10T09:18:46.242Z,13.32
2019-05-10T09:19:44.253Z,13.26
2019-05-10T09:20:42.296Z,13.26
2019-05-10T09:21:49.402Z,13.27
2019-05-10T09:22:42.375Z,13.38
2019-05-10T09:23:42.629Z,13.32
2019-05-10T09:24:48.739Z,13.39
2019-05-10T09:25:42.656Z,13.42
2019-05-10T09:26:41.916Z,13.47
2019-05-10T09:27:43.298Z,13.58
2019-05-10T09:28:42.211Z,13.72
2019-05-10T09:29:43.070Z,13.72
2019-05-10T09:30:56.519Z,13.73
2019-05-10T09:31:46.064Z,13.68
2019-05-10T09:32:43.462Z,13.86
2019-05-10T09:33:49.368Z,13.82
2019-05-10T09:34:42.592Z,13.83
2019-05-10T09:35:46.900Z,13.73
2019-05-10T09:36:44.862Z,13.72
2019-05-10T09:37:42.228Z,13.82
2019-05-10T09:38:43.401Z,13.80
2019-05-10T09:39:42.438Z,13.85
2019-05-10T09:40:50.791Z,13.86
2019-05-10T09:41:44.700Z,13.96
2019-05-10T09:42:43.517Z,14.04
2019-05-10T09:43:48.326Z,14.09
2019-05-10T09:44:45.560Z,14.01
2019-05-10T09:45:42.354Z,13.98
2019-05-10T09:46:42.177Z,13.93
2019-05-10T09:47:43.439Z,13.91
2019-05-10T09:48:44.647Z,13.82
2019-05-10T09:49:46.808Z,13.82
2019-05-10T09:50:46.799Z,13.86
2019-05-10T09:51:42.272Z,13.88
2019-05-10T09:52:41.305Z,13.82
2019-05-10T09:53:41.293Z,13.75
2019-05-10T09:54:41.305Z,13.78
2019-05-10T09:55:45.481Z,13.76
2019-05-10T09:56:44.360Z,13.75
2019-05-10T09:57:41.315Z,13.64
2019-05-10T09:58:41.241Z,13.61
2019-05-10T09:59:41.264Z,13.58
2019-05-10T10:00:41.214Z,13.57
2019-05-10T10:01:41.271Z,13.54
2019-05-10T10:02:47.659Z,13.46
2019-05-10T10:03:43.682Z,13.55
2019-05-10T10:04:41.192Z,13.45
2019-05-10T10:05:41.159Z,13.54
2019-05-10T10:06:41.934Z,13.57
2019-05-10T10:07:42.142Z,13.54
2019-05-10T10:08:43.305Z,13.61
2019-05-10T10:09:44.880Z,13.71
2019-05-10T10:10:41.108Z,13.78
2019-05-10T10:11:48.625Z,13.71
2019-05-10T10:12:41.084Z,13.90
2019-05-10T10:13:43.969Z,13.85
2019-05-10T10:14:43.216Z,13.86
2019-05-10T10:15:41.048Z,13.93
2019-05-10T10:16:49.402Z,13.96
2019-05-10T10:17:42.458Z,14.11
2019-05-10T10:18:41.014Z,14.15
2019-05-10T10:19:41.025Z,14.15
2019-05-10T10:20:44.959Z,14.26
2019-05-10T10:21:40.980Z,14.21
2019-05-10T10:22:43.396Z,14.28
2019-05-10T10:23:40.961Z,14.31
2019-05-10T10:24:41.297Z,14.38
2019-05-10T10:25:42.250Z,14.41
2019-05-10T10:26:40.930Z,14.37
2019-05-10T10:27:40.913Z,14.49
2019-05-10T10:28:40.900Z,14.52
2019-05-10T10:29:40.912Z,14.63
2019-05-10T10:30:40.883Z,14.59
2019-05-10T10:31:51.464Z,14.78
2019-05-10T10:32:44.286Z,14.82
2019-05-10T10:33:42.930Z,14.90
2019-05-10T10:34:43.063Z,15.04
2019-05-10T10:35:40.823Z,15.23
2019-05-10T10:36:44.010Z,15.25
2019-05-10T10:37:40.805Z,15.48
2019-05-10T10:38:45.346Z,15.63
2019-05-10T10:39:40.781Z,15.70
2019-05-10T10:40:44.481Z,15.88
2019-05-10T10:41:40.758Z,16.06
2019-05-10T10:42:40.744Z,16.26
2019-05-10T10:43:40.732Z,16.61
2019-05-10T10:44:40.724Z,16.90
2019-05-10T10:45:40.734Z,16.92
2019-05-10T10:46:40.699Z,17.01
2019-05-10T10:47:40.688Z,17.01
2019-05-10T10:48:43.535Z,17.20
2019-05-10T10:49:40.668Z,17.20
2019-05-10T10:50:44.319Z,17.31
2019-05-10T10:51:40.647Z,17.41
2019-05-10T10:52:40.668Z,17.39
2019-05-10T10:53:40.626Z,17.56
2019-05-10T10:54:40.629Z,17.49
2019-05-10T10:55:45.420Z,17.57
2019-05-10T10:56:41.593Z,17.66
2019-05-10T10:57:40.581Z,17.73
2019-05-10T10:58:40.567Z,17.79
2019-05-10T10:59:40.556Z,17.83
2019-05-10T11:00:40.569Z,17.86
2019-05-10T11:01:49.506Z,17.99
2019-05-10T11:02:41.677Z,17.94
2019-05-10T11:03:40.513Z,17.97
2019-05-10T11:04:46.399Z,17.84
2019-05-10T11:05:41.519Z,17.86
2019-05-10T11:06:40.485Z,17.78
2019-05-10T11:07:44.289Z,17.72
2019-05-10T11:08:41.460Z,17.65
2019-05-10T11:09:41.053Z,17.62
2019-05-10T11:10:42.730Z,17.72
2019-05-10T11:11:44.295Z,17.86
2019-05-10T11:12:41.267Z,18.02
2019-05-10T11:13:45.028Z,18.15
2019-05-10T11:14:45.392Z,18.18
2019-05-10T11:15:42.007Z,18.01
2019-05-10T11:16:41.242Z,17.91
2019-05-10T11:17:40.884Z,17.91
2019-05-10T11:18:41.851Z,17.75
2019-05-10T11:19:41.739Z,17.54
2019-05-10T11:20:42.035Z,17.41
2019-05-10T11:21:41.554Z,17.37
2019-05-10T11:22:42.026Z,17.30
2019-05-10T11:23:41.946Z,17.20
2019-05-10T11:24:40.283Z,17.16
2019-05-10T11:25:42.765Z,17.22
2019-05-10T11:26:41.752Z,17.27
2019-05-10T11:27:41.544Z,17.47
2019-05-10T11:28:44.192Z,17.59
2019-05-10T11:29:41.800Z,17.73
2019-05-10T11:30:40.240Z,17.88
2019-05-10T11:31:41.438Z,18.09
2019-05-10T11:32:41.780Z,18.13
2019-05-10T11:33:41.445Z,18.09
2019-05-10T11:34:40.173Z,17.99
2019-05-10T11:35:41.665Z,17.91
2019-05-10T11:36:40.455Z,18.15
2019-05-10T11:37:45.129Z,18.34
2019-05-10T11:38:41.994Z,18.42
2019-05-10T11:39:45.265Z,18.49
2019-05-10T11:40:41.878Z,18.54
2019-05-10T11:41:40.100Z,18.54
2019-05-10T11:42:45.400Z,18.64
2019-05-10T11:43:41.902Z,18.75
2019-05-10T11:44:41.407Z,18.86
2019-05-10T11:45:43.937Z,18.93
2019-05-10T11:46:41.657Z,18.93
2019-05-10T11:47:40.900Z,19.13
2019-05-10T11:48:42.252Z,19.08
2019-05-10T11:49:40.667Z,19.20
2019-05-10T11:50:41.130Z,19.22
2019-05-10T11:51:41.352Z,19.27
2019-05-10T11:52:40.780Z,19.27
2019-05-10T11:53:41.364Z,19.44
2019-05-10T11:54:41.726Z,19.50
2019-05-10T11:55:42.857Z,19.41
2019-05-10T11:56:41.013Z,19.41
2019-05-10T11:57:43.993Z,19.47
2019-05-10T11:58:49.162Z,19.62
2019-05-10T11:59:41.597Z,19.75
2019-05-10T12:00:41.421Z,19.82
2019-05-10T12:01:41.747Z,19.78
2019-05-10T12:03:01.075Z,19.72
2019-05-10T12:03:42.433Z,19.81
2019-05-10T12:06:49.501Z,19.97
2019-05-10T12:08:41.814Z,20.14
2019-05-10T12:09:42.427Z,20.14
2019-05-10T12:11:51.495Z,20.32
2019-05-10T12:12:54.608Z,20.44
2019-05-10T12:13:40.754Z,20.39
2019-05-10T12:14:43.637Z,20.49
2019-05-10T12:15:42.988Z,20.52
2019-05-10T12:16:42.027Z,20.42
2019-05-10T12:17:46.345Z,20.53
2019-05-10T12:18:46.512Z,20.50
2019-05-10T12:21:40.697Z,20.44
2019-05-10T12:22:42.035Z,20.55
2019-05-10T12:23:50.262Z,20.56
2019-05-10T12:24:53.669Z,20.46
2019-05-10T12:25:57.484Z,20.46
2019-05-10T12:25:59.929Z,19.79
2019-05-10T12:26:05.083Z,19.92
2019-05-10T12:26:05.085Z,20.05
2019-05-10T12:26:05.396Z,20.44
2019-05-10T12:26:18.949Z,20.53
2019-05-10T12:26:27.549Z,20.14
2019-05-10T12:27:12.708Z,20.50
2019-05-10T12:27:47.116Z,20.46
2019-05-10T12:28:40.826Z,20.55
2019-05-10T12:29:39.593Z,20.53
2019-05-10T12:30:40.907Z,20.41
2019-05-10T12:31:41.515Z,20.41
2019-05-10T12:32:55.041Z,20.09
2019-05-10T12:33:42.923Z,19.87
2019-05-10T12:34:41.130Z,19.89
2019-05-10T12:35:46.354Z,19.94
2019-05-10T12:36:41.231Z,20.15
2019-05-10T12:37:46.309Z,20.04
2019-05-10T12:38:40.501Z,20.07
2019-05-10T12:39:39.484Z,20.05
2019-05-10T12:40:41.742Z,20.02
2019-05-10T12:41:44.693Z,19.96
2019-05-10T12:42:41.608Z,19.92
2019-05-10T12:43:43.232Z,19.75
2019-05-10T12:44:43.950Z,19.60
2019-05-10T12:45:41.821Z,19.72
2019-05-10T12:46:42.103Z,19.68
2019-05-10T12:47:41.414Z,19.71
2019-05-10T12:48:39.389Z,19.92
2019-05-10T12:49:40.973Z,20.02
2019-05-10T12:50:39.367Z,19.96
2019-05-10T12:51:40.926Z,19.96
2019-05-10T12:52:39.366Z,19.78